Time;durP1;ratioP1;P1;durP2;ratioP2;P2;SDS_P1;SDS_P2;PMS_P1;PMS_P2;Temp;Humidity;BMP_temperature;BMP_pressure;BME280_temperature;BME280_humidity;BME280_pressure;Samples;Min_cycle;Max_cycle;Signal;HPM_P1;HPM_P2
2022/09/27 00:00:12;;;;;;;;;2.67;2.00;;;;;;;;5035583;28;45205;-81
2022/09/27 00:02:37;;;;;;;;;2.67;1.67;;;;;;;;5056157;28;45198;-81
2022/09/27 00:05:02;;;;;;;;;3.00;3.00;;;;;;;;5039538;28;46786;-81
2022/09/27 00:07:27;;;;;;;;;2.67;1.00;;;;;;;;5036845;28;45470;-81
2022/09/27 00:09:53;;;;;;;;;4.00;4.00;;;;;;;;5038018;28;45514;-81
2022/09/27 00:12:18;;;;;;;;;3.00;3.00;;;;;;;;5056411;28;44803;-80
2022/09/27 00:14:43;;;;;;;;;3.33;3.33;;;;;;;;5055882;28;45241;-80
2022/09/27 00:17:08;;;;;;;;;3.00;3.00;;;;;;;;5036522;28;45309;-81
2022/09/27 00:19:34;;;;;;;;;2.00;2.00;;;;;;;;5036665;28;45461;-82
2022/09/27 00:22:00;;;;;;;;;3.00;2.00;;;;;;;;5051985;28;45321;-82
2022/09/27 00:24:25;;;;;;;;;3.33;2.33;;;;;;;;5067861;28;47015;-81
2022/09/27 00:26:50;;;;;;;;;3.00;1.67;;;;;;;;5044384;28;45365;-82
2022/09/27 00:29:17;;;;;;;;;1.33;1.33;;;;;;;;5054389;28;45482;-82
2022/09/27 00:31:42;;;;;;;;;3.00;3.00;;;;;;;;5069438;28;45318;-81
2022/09/27 00:34:12;;;;;;;;;1.00;1.00;;;;;;;;5039583;28;48209;-82
2022/09/27 00:36:37;;;;;;;;;1.33;1.33;;;;;;;;5055089;28;45469;-82
2022/09/27 00:39:03;;;;;;;;;4.00;3.00;;;;;;;;5037595;28;45406;-82
2022/09/27 00:41:30;;;;;;;;;2.67;2.67;;;;;;;;5056325;28;45661;-82
2022/09/27 00:43:57;;;;;;;;;1.33;1.33;;;;;;;;5057471;28;46315;-81
2022/09/27 00:46:22;;;;;;;;;1.00;1.00;;;;;;;;5066403;28;45284;-82
2022/09/27 00:48:48;;;;;;;;;2.00;2.00;;;;;;;;5039029;28;44715;-81
2022/09/27 00:51:14;;;;;;;;;3.00;2.00;;;;;;;;5038573;28;45166;-80
2022/09/27 00:53:45;;;;;;;;;4.00;2.67;;;;;;;;5057460;28;45137;-82
2022/09/27 00:56:14;;;;;;;;;1.33;1.33;;;;;;;;5039352;28;45310;-81
2022/09/27 00:58:43;;;;;;;;;4.33;4.00;;;;;;;;5054328;28;45208;-81
2022/09/27 01:01:15;;;;;;;;;2.00;2.00;;;;;;;;5057910;28;44766;-81
2022/09/27 01:03:49;;;;;;;;;2.00;1.67;;;;;;;;5038114;28;46869;-81
2022/09/27 01:06:15;;;;;;;;;4.33;2.00;;;;;;;;5052515;28;45271;-82
2022/09/27 01:08:40;;;;;;;;;3.00;3.00;;;;;;;;5048454;28;45455;-79
2022/09/27 01:11:15;;;;;;;;;4.00;2.00;;;;;;;;5054486;28;44699;-80
2022/09/27 01:13:52;;;;;;;;;7.67;3.00;;;;;;;;5050801;28;46908;-80
2022/09/27 01:16:25;;;;;;;;;3.00;3.00;;;;;;;;5032683;28;47781;-80
2022/09/27 01:19:02;;;;;;;;;3.00;1.33;;;;;;;;5054020;28;45507;-80
2022/09/27 01:21:27;;;;;;;;;5.00;3.00;;;;;;;;5037541;28;45506;-79
2022/09/27 01:23:59;;;;;;;;;2.67;2.33;;;;;;;;5037032;28;47419;-80
2022/09/27 01:26:53;;;;;;;;;2.67;2.67;;;;;;;;5034902;28;45164;-80
2022/09/27 01:29:24;;;;;;;;;3.67;3.67;;;;;;;;4971418;28;44838;-80
2022/09/27 01:32:04;;;;;;;;;2.00;2.00;;;;;;;;5031923;28;45612;-80
2022/09/27 01:34:49;;;;;;;;;2.00;2.00;;;;;;;;5055760;28;45675;-82
2022/09/27 01:37:33;;;;;;;;;5.00;2.00;;;;;;;;5031363;28;46031;-82
2022/09/27 01:40:06;;;;;;;;;3.00;2.00;;;;;;;;5054492;28;44833;-82
2022/09/27 01:42:38;;;;;;;;;2.33;1.67;;;;;;;;5052777;28;45256;-80
2022/09/27 01:45:03;;;;;;;;;3.67;1.00;;;;;;;;5036476;28;46192;-80
2022/09/27 01:47:49;;;;;;;;;4.33;3.00;;;;;;;;5035304;28;45335;-80
2022/09/27 01:50:20;;;;;;;;;3.33;2.67;;;;;;;;5038951;28;45422;-80
2022/09/27 01:52:54;;;;;;;;;2.33;2.00;;;;;;;;5054198;28;45286;-80
2022/09/27 01:55:22;;;;;;;;;4.00;4.00;;;;;;;;5055010;28;46159;-81
2022/09/27 01:57:55;;;;;;;;;2.00;2.00;;;;;;;;5030419;28;45519;-80
2022/09/27 02:00:21;;;;;;;;;4.67;2.67;;;;;;;;5054679;28;45303;-81
2022/09/27 02:02:52;;;;;;;;;5.00;5.00;;;;;;;;5030013;28;45627;-81
2022/09/27 02:05:19;;;;;;;;;1.00;1.00;;;;;;;;5034564;28;47950;-80
2022/09/27 02:07:52;;;;;;;;;3.00;2.00;;;;;;;;5054740;28;45454;-80
2022/09/27 02:10:20;;;;;;;;;1.00;1.00;;;;;;;;5055255;28;44793;-80
2022/09/27 02:12:57;;;;;;;;;1.33;1.00;;;;;;;;5057161;28;45212;-80
2022/09/27 02:15:25;;;;;;;;;2.00;2.00;;;;;;;;5033366;28;47430;-80
2022/09/27 02:17:50;;;;;;;;;1.00;1.00;;;;;;;;5029520;28;45343;-80
2022/09/27 02:20:31;;;;;;;;;2.00;1.00;;;;;;;;5035092;28;45400;-79
2022/09/27 02:23:05;;;;;;;;;3.00;1.67;;;;;;;;5031169;28;44851;-80
2022/09/27 02:25:33;;;;;;;;;1.00;1.00;;;;;;;;5070609;28;47292;-79
2022/09/27 02:28:01;;;;;;;;;1.67;1.67;;;;;;;;5033879;28;47942;-79
2022/09/27 02:30:26;;;;;;;;;3.00;2.00;;;;;;;;5059711;28;44805;-80
2022/09/27 02:32:52;;;;;;;;;3.00;1.00;;;;;;;;5058889;28;45319;-80
2022/09/27 02:35:19;;;;;;;;;2.67;2.00;;;;;;;;5040739;28;45315;-79
2022/09/27 02:37:45;;;;;;;;;2.67;2.00;;;;;;;;5038273;28;46084;-80
2022/09/27 02:40:12;;;;;;;;;2.00;2.00;;;;;;;;5060405;28;44739;-80
2022/09/27 02:42:38;;;;;;;;;2.00;1.00;;;;;;;;5059115;28;44962;-79
2022/09/27 02:45:04;;;;;;;;;1.00;1.00;;;;;;;;5040150;28;47388;-80
2022/09/27 02:47:48;;;;;;;;;3.00;1.00;;;;;;;;5047765;28;44737;-79
2022/09/27 02:50:24;;;;;;;;;2.00;2.00;;;;;;;;5054178;28;44811;-80
2022/09/27 02:53:06;;;;;;;;;1.00;1.00;;;;;;;;5051870;28;45385;-80
2022/09/27 02:55:56;;;;;;;;;1.00;1.00;;;;;;;;5032433;28;47132;-80
2022/09/27 02:58:36;;;;;;;;;1.00;1.00;;;;;;;;5046043;28;45357;-80
2022/09/27 03:01:12;;;;;;;;;5.00;3.33;;;;;;;;5039502;28;45357;-80
2022/09/27 03:03:46;;;;;;;;;1.00;1.00;;;;;;;;5072278;28;45342;-81
2022/09/27 03:06:13;;;;;;;;;2.00;2.00;;;;;;;;5038642;28;47168;-80
2022/09/27 03:08:39;;;;;;;;;1.00;1.00;;;;;;;;5056110;28;45490;-80
2022/09/27 03:11:04;;;;;;;;;1.00;1.00;;;;;;;;5040967;28;45243;-81
2022/09/27 03:13:30;;;;;;;;;2.00;2.00;;;;;;;;5022796;28;45426;-78
2022/09/27 03:15:55;;;;;;;;;3.00;1.00;;;;;;;;5041175;28;48332;-79
2022/09/27 03:18:20;;;;;;;;;1.67;1.67;;;;;;;;5041323;28;45273;-79
2022/09/27 03:20:46;;;;;;;;;2.00;2.00;;;;;;;;5040305;28;45347;-80
2022/09/27 03:23:11;;;;;;;;;2.00;1.00;;;;;;;;5041729;28;45300;-78
2022/09/27 03:25:36;;;;;;;;;1.00;1.00;;;;;;;;5017983;28;47158;-77
2022/09/27 03:28:01;;;;;;;;;3.00;2.00;;;;;;;;5036721;28;45315;-77
2022/09/27 03:30:27;;;;;;;;;2.00;0.00;;;;;;;;5010072;28;45300;-77
2022/09/27 03:32:52;;;;;;;;;2.00;1.00;;;;;;;;5036199;28;45280;-77
2022/09/27 03:35:17;;;;;;;;;1.67;1.33;;;;;;;;5024119;28;48319;-78
2022/09/27 03:37:43;;;;;;;;;3.00;2.00;;;;;;;;5041341;28;45418;-78
2022/09/27 03:40:09;;;;;;;;;3.00;1.67;;;;;;;;5024065;28;45264;-78
2022/09/27 03:42:34;;;;;;;;;1.00;1.00;;;;;;;;5040801;28;45516;-78
2022/09/27 03:44:59;;;;;;;;;2.67;1.67;;;;;;;;5042074;28;45627;-78
2022/09/27 03:47:25;;;;;;;;;3.00;3.00;;;;;;;;5041331;28;45424;-78
2022/09/27 03:49:50;;;;;;;;;4.33;3.00;;;;;;;;5043981;28;45406;-78
2022/09/27 03:52:17;;;;;;;;;2.67;2.00;;;;;;;;5044935;28;45192;-78
2022/09/27 03:54:42;;;;;;;;;3.33;2.33;;;;;;;;5027038;28;47177;-79
2022/09/27 03:57:08;;;;;;;;;1.00;1.00;;;;;;;;5044489;28;45369;-78
2022/09/27 03:59:33;;;;;;;;;2.00;2.00;;;;;;;;5045399;28;45364;-79
2022/09/27 04:01:58;;;;;;;;;1.00;1.00;;;;;;;;5045211;28;45429;-79
2022/09/27 04:04:23;;;;;;;;;1.00;1.00;;;;;;;;5044753;28;46688;-79
2022/09/27 04:06:49;;;;;;;;;2.00;2.00;;;;;;;;5044933;28;45434;-79
2022/09/27 04:09:14;;;;;;;;;3.00;1.00;;;;;;;;5045644;28;45418;-79
2022/09/27 04:11:39;;;;;;;;;2.00;2.00;;;;;;;;5044849;28;45651;-79
2022/09/27 04:14:04;;;;;;;;;2.33;2.33;;;;;;;;5045207;28;45421;-80
2022/09/27 04:16:31;;;;;;;;;1.33;1.00;;;;;;;;5045058;28;45366;-79
2022/09/27 04:18:56;;;;;;;;;1.67;0.33;;;;;;;;5045383;28;45347;-79
2022/09/27 04:21:21;;;;;;;;;1.00;1.00;;;;;;;;5045274;28;45400;-79
2022/09/27 04:23:46;;;;;;;;;2.00;2.00;;;;;;;;5044714;28;45570;-79
2022/09/27 04:26:12;;;;;;;;;1.00;1.00;;;;;;;;5027214;28;45387;-79
2022/09/27 04:28:38;;;;;;;;;4.33;2.67;;;;;;;;5044113;28;45510;-79
2022/09/27 04:31:03;;;;;;;;;2.00;2.00;;;;;;;;5061266;28;45389;-78
2022/09/27 04:33:28;;;;;;;;;2.00;2.00;;;;;;;;5043387;28;45493;-78
2022/09/27 04:38:37;;;;;;;;;2.00;2.00;;;;;;;;5044302;28;45367;-77
2022/09/27 04:41:02;;;;;;;;;4.00;3.00;;;;;;;;5045199;28;45644;-77
2022/09/27 04:43:28;;;;;;;;;2.00;2.00;;;;;;;;5043651;28;45320;-77
2022/09/27 04:45:53;;;;;;;;;4.00;2.33;;;;;;;;5044119;28;45440;-77
2022/09/27 04:48:18;;;;;;;;;2.00;2.00;;;;;;;;5044836;28;45356;-78
2022/09/27 04:50:43;;;;;;;;;3.00;2.00;;;;;;;;5044267;28;45152;-79
2022/09/27 04:53:13;;;;;;;;;2.00;1.00;;;;;;;;5043278;28;45449;-76
2022/09/27 04:55:38;;;;;;;;;6.00;3.00;;;;;;;;5043736;28;45337;-76
2022/09/27 04:58:04;;;;;;;;;2.00;2.00;;;;;;;;5043807;28;45379;-78
2022/09/27 05:00:29;;;;;;;;;6.00;3.00;;;;;;;;5026824;28;45458;-78
2022/09/27 05:02:54;;;;;;;;;1.67;1.67;;;;;;;;5041763;28;47349;-77
2022/09/27 05:05:19;;;;;;;;;1.67;1.67;;;;;;;;5025667;28;45481;-77
2022/09/27 05:07:44;;;;;;;;;2.33;2.00;;;;;;;;5043960;28;45374;-74
2022/09/27 05:10:10;;;;;;;;;4.33;1.00;;;;;;;;5043867;28;45243;-76
2022/09/27 05:12:35;;;;;;;;;2.33;2.33;;;;;;;;5042169;28;45619;-76
2022/09/27 05:15:01;;;;;;;;;2.00;1.00;;;;;;;;5043030;28;45333;-75
2022/09/27 05:17:26;;;;;;;;;1.00;1.00;;;;;;;;5057528;28;45325;-76
2022/09/27 05:19:52;;;;;;;;;2.00;2.00;;;;;;;;5022092;28;45565;-76
2022/09/27 05:22:18;;;;;;;;;4.00;3.00;;;;;;;;5055649;28;47161;-76
2022/09/27 05:24:43;;;;;;;;;1.00;1.00;;;;;;;;5021982;28;45214;-76
2022/09/27 05:27:11;;;;;;;;;3.00;1.00;;;;;;;;5038911;28;45657;-76
2022/09/27 05:29:36;;;;;;;;;2.00;2.00;;;;;;;;5056335;28;45299;-75
2022/09/27 05:32:02;;;;;;;;;1.00;1.00;;;;;;;;5041598;28;45300;-76
2022/09/27 05:34:27;;;;;;;;;4.00;3.33;;;;;;;;5042108;28;45394;-76
2022/09/27 05:36:52;;;;;;;;;7.00;7.00;;;;;;;;5041626;28;45389;-76
2022/09/27 05:39:17;;;;;;;;;6.33;2.67;;;;;;;;5042460;28;45535;-75
2022/09/27 05:41:43;;;;;;;;;3.00;1.00;;;;;;;;5041607;28;45367;-75
2022/09/27 05:44:08;;;;;;;;;3.33;2.00;;;;;;;;5024285;28;45343;-76
2022/09/27 05:46:33;;;;;;;;;2.33;1.00;;;;;;;;5041356;28;45280;-75
2022/09/27 05:48:59;;;;;;;;;4.00;2.33;;;;;;;;5042143;28;45509;-76
2022/09/27 05:51:24;;;;;;;;;5.67;3.00;;;;;;;;5022546;28;46890;-76
2022/09/27 05:53:49;;;;;;;;;3.67;3.00;;;;;;;;5023539;28;45430;-75
2022/09/27 05:56:16;;;;;;;;;5.00;2.00;;;;;;;;5022155;28;45397;-75
2022/09/27 05:58:41;;;;;;;;;3.67;2.00;;;;;;;;5022874;28;45301;-75
2022/09/27 06:01:07;;;;;;;;;1.33;1.00;;;;;;;;5022237;28;46777;-75
2022/09/27 06:03:32;;;;;;;;;4.00;2.00;;;;;;;;5023052;28;45469;-75
2022/09/27 06:06:00;;;;;;;;;3.33;3.00;;;;;;;;5055500;28;45359;-76
2022/09/27 06:08:25;;;;;;;;;4.00;3.00;;;;;;;;5041464;28;45455;-76
2022/09/27 06:10:59;;;;;;;;;4.00;4.00;;;;;;;;5022517;28;46638;-76
2022/09/27 06:13:24;;;;;;;;;4.00;2.67;;;;;;;;5039657;28;45230;-75
2022/09/27 06:15:51;;;;;;;;;5.33;3.00;;;;;;;;5041891;28;45601;-75
2022/09/27 06:18:16;;;;;;;;;2.33;2.00;;;;;;;;5039629;28;46300;-75
2022/09/27 06:20:42;;;;;;;;;2.00;2.00;;;;;;;;5040818;28;45232;-75
2022/09/27 06:23:07;;;;;;;;;3.67;2.67;;;;;;;;5056153;28;45350;-77
2022/09/27 06:25:33;;;;;;;;;2.00;2.00;;;;;;;;5040995;28;45834;-78
2022/09/27 06:27:58;;;;;;;;;2.67;2.00;;;;;;;;5040624;28;45397;-76
2022/09/27 06:30:23;;;;;;;;;3.33;3.33;;;;;;;;5023561;28;48337;-76
2022/09/27 06:32:54;;;;;;;;;4.00;3.00;;;;;;;;5017028;28;45530;-77
2022/09/27 06:35:19;;;;;;;;;3.67;2.00;;;;;;;;5017059;28;45328;-77
2022/09/27 06:37:45;;;;;;;;;3.00;3.00;;;;;;;;5018930;28;45344;-75
2022/09/27 06:40:10;;;;;;;;;2.00;2.00;;;;;;;;5041422;28;45433;-76
2022/09/27 06:42:35;;;;;;;;;3.00;3.00;;;;;;;;5040550;28;45278;-75
2022/09/27 06:45:00;;;;;;;;;4.00;2.67;;;;;;;;5041821;28;45212;-75
2022/09/27 06:47:26;;;;;;;;;6.33;3.67;;;;;;;;5040058;28;45338;-76
2022/09/27 06:49:51;;;;;;;;;4.33;2.33;;;;;;;;5040302;28;46395;-76
2022/09/27 06:52:16;;;;;;;;;2.00;2.00;;;;;;;;5016329;28;45537;-76
2022/09/27 06:54:41;;;;;;;;;1.33;1.33;;;;;;;;5040973;28;45482;-75
2022/09/27 06:57:06;;;;;;;;;2.00;2.00;;;;;;;;5040886;28;45291;-76
2022/09/27 07:02:15;;;;;;;;;10.00;7.67;;;;;;;;5040490;28;45406;-76
2022/09/27 07:04:41;;;;;;;;;4.00;3.00;;;;;;;;5038531;28;45324;-76
2022/09/27 07:07:06;;;;;;;;;9.67;4.00;;;;;;;;5019206;28;45582;-76
2022/09/27 07:09:31;;;;;;;;;5.33;4.00;;;;;;;;5041088;28;45540;-76
2022/09/27 07:11:57;;;;;;;;;8.33;5.00;;;;;;;;5040463;28;45299;-76
2022/09/27 07:14:23;;;;;;;;;5.33;4.00;;;;;;;;5023170;28;45267;-76
2022/09/27 07:16:48;;;;;;;;;3.67;3.67;;;;;;;;5041421;28;45526;-76
2022/09/27 07:19:14;;;;;;;;;7.33;5.33;;;;;;;;5040278;28;46530;-76
2022/09/27 07:21:39;;;;;;;;;1.67;1.67;;;;;;;;5021851;28;45547;-76
2022/09/27 07:24:04;;;;;;;;;4.67;3.00;;;;;;;;5042049;28;45409;-76
2022/09/27 07:26:30;;;;;;;;;3.00;3.00;;;;;;;;5026280;28;45336;-78
2022/09/27 07:28:55;;;;;;;;;4.67;3.00;;;;;;;;5043821;28;46444;-76
2022/09/27 07:31:21;;;;;;;;;3.33;3.33;;;;;;;;5044152;28;45223;-76
2022/09/27 07:33:46;;;;;;;;;4.33;4.00;;;;;;;;5044898;28;45387;-76
2022/09/27 07:36:12;;;;;;;;;3.00;3.00;;;;;;;;5045332;28;45590;-77
2022/09/27 07:38:37;;;;;;;;;3.00;3.00;;;;;;;;5045743;28;45310;-76
2022/09/27 07:41:06;;;;;;;;;4.67;3.67;;;;;;;;5044976;28;45204;-78
2022/09/27 07:43:32;;;;;;;;;6.00;6.00;;;;;;;;5039995;28;45851;-76
2022/09/27 07:45:57;;;;;;;;;4.33;3.00;;;;;;;;5026767;28;45094;-77
2022/09/27 07:48:22;;;;;;;;;12.00;10.00;;;;;;;;5019901;28;46849;-77
2022/09/27 07:50:47;;;;;;;;;3.00;1.00;;;;;;;;5043662;28;45340;-77
2022/09/27 07:53:13;;;;;;;;;4.67;3.67;;;;;;;;5044065;28;45413;-77
2022/09/27 07:55:38;;;;;;;;;4.33;4.33;;;;;;;;5045036;28;45450;-77
2022/09/27 07:58:06;;;;;;;;;5.67;3.33;;;;;;;;5020229;28;47142;-77
2022/09/27 08:00:31;;;;;;;;;8.00;5.00;;;;;;;;5044269;28;45306;-78
2022/09/27 08:02:56;;;;;;;;;5.00;3.00;;;;;;;;5042915;28;45423;-77
2022/09/27 08:05:21;;;;;;;;;5.33;2.00;;;;;;;;5045431;28;45394;-77
2022/09/27 08:07:47;;;;;;;;;9.67;3.67;;;;;;;;5044103;28;45397;-77
2022/09/27 08:10:12;;;;;;;;;3.33;3.00;;;;;;;;5021540;28;45378;-78
2022/09/27 08:12:38;;;;;;;;;2.67;2.00;;;;;;;;5042768;28;45360;-77
2022/09/27 08:15:04;;;;;;;;;8.67;4.00;;;;;;;;5044222;28;45358;-77
2022/09/27 08:17:29;;;;;;;;;4.00;2.67;;;;;;;;5042788;28;45650;-77
2022/09/27 08:19:55;;;;;;;;;4.00;3.33;;;;;;;;5044307;28;45300;-77
2022/09/27 08:22:20;;;;;;;;;8.00;4.00;;;;;;;;5043390;28;45337;-77
2022/09/27 08:24:46;;;;;;;;;6.00;3.00;;;;;;;;5025415;28;45288;-76
2022/09/27 08:27:12;;;;;;;;;3.00;3.00;;;;;;;;5025735;28;46634;-77
2022/09/27 08:29:40;;;;;;;;;3.67;3.67;;;;;;;;5044264;28;45343;-77
2022/09/27 08:32:05;;;;;;;;;4.00;4.00;;;;;;;;5042577;28;45402;-77
2022/09/27 08:34:31;;;;;;;;;2.00;2.00;;;;;;;;5025996;28;45618;-76
2022/09/27 08:36:58;;;;;;;;;4.67;3.00;;;;;;;;5041634;28;46224;-76
2022/09/27 08:39:23;;;;;;;;;8.67;7.00;;;;;;;;5024193;28;45320;-76
2022/09/27 08:41:51;;;;;;;;;2.33;2.33;;;;;;;;5042904;28;45197;-75
2022/09/27 08:44:36;;;;;;;;;4.00;1.00;;;;;;;;5043333;28;45231;-76
2022/09/27 08:47:08;;;;;;;;;1.33;1.33;;;;;;;;5042342;28;45756;-78
2022/09/27 08:49:52;;;;;;;;;4.00;3.00;;;;;;;;5043476;28;45266;-78
2022/09/27 08:52:26;;;;;;;;;3.00;3.00;;;;;;;;5042634;28;45491;-79
2022/09/27 09:09:02;;;;;;;;;2.00;2.00;;;;;19.89;64.83;100222.31;5064914;28;45350;-77
2022/09/27 09:14:55;;;;;;;;;1.00;1.00;;;;;19.38;66.50;100247.97;5048183;28;45490;-76
2022/09/27 09:17:39;;;;;;;;;0.00;0.00;;;;;19.77;66.82;100240.63;5051080;28;45410;-76
2022/09/27 09:20:40;;;;;;;;;3.00;2.67;;;;;20.01;68.26;100250.03;5044811;28;45433;-76
2022/09/27 09:23:26;;;;;;;;;3.00;3.00;;;;;19.45;69.39;100245.19;5039639;28;45394;-76
2022/09/27 09:26:22;;;;;;;;;3.00;3.00;;;;;19.38;68.80;100244.38;5050270;28;45380;-76
2022/09/27 09:29:21;;;;;;;;;4.00;4.00;;;;;19.57;69.86;100220.59;5045264;28;45305;-76
2022/09/27 09:31:59;;;;;;;;;4.33;3.67;;;;;19.80;69.27;100226.38;5042287;28;47594;-77
2022/09/27 09:34:36;;;;;;;;;2.00;2.00;;;;;20.06;68.30;100225.38;5054082;27;45524;-76
2022/09/27 09:37:15;;;;;;;;;5.00;3.00;;;;;20.19;67.11;100215.09;5051650;28;45505;-76
2022/09/27 09:39:56;;;;;;;;;2.33;2.00;;;;;20.96;67.45;100199.13;5046015;28;45572;-77
2022/09/27 09:42:25;;;;;;;;;2.00;2.00;;;;;20.87;64.11;100195.81;5051554;28;47096;-77
2022/09/27 09:45:02;;;;;;;;;3.67;2.67;;;;;21.24;62.37;100179.28;5049688;28;45329;-76
2022/09/27 09:47:35;;;;;;;;;3.00;2.33;;;;;21.78;61.54;100186.59;5052472;28;45380;-78
2022/09/27 09:50:16;;;;;;;;;1.00;1.00;;;;;21.75;58.73;100192.63;5040481;28;45521;-76
2022/09/27 09:52:47;;;;;;;;;2.33;2.33;;;;;22.11;57.50;100202.75;5048138;28;45375;-77
2022/09/27 09:55:23;;;;;;;;;2.00;1.33;;;;;22.13;55.84;100187.59;5044663;28;45512;-76
2022/09/27 09:58:13;;;;;;;;;4.33;2.00;;;;;21.62;54.93;100182.59;5043096;28;45440;-77
2022/09/27 10:00:40;;;;;;;;;2.00;2.00;;;;;22.02;55.92;100166.28;5058348;28;45412;-76
2022/09/27 10:03:06;;;;;;;;;3.00;3.00;;;;;21.79;54.29;100166.19;5060888;28;45472;-77
2022/09/27 10:05:32;;;;;;;;;1.00;1.00;;;;;21.74;53.06;100169.66;5048365;28;45540;-77
2022/09/27 10:08:01;;;;;;;;;2.33;1.33;;;;;21.27;55.51;100173.28;5041633;28;45341;-79
2022/09/27 10:10:27;;;;;;;;;3.00;3.00;;;;;21.54;55.91;100171.88;5046998;28;45354;-79
2022/09/27 10:12:53;;;;;;;;;2.00;1.00;;;;;21.93;54.09;100164.03;5030185;28;47000;-78
2022/09/27 10:15:24;;;;;;;;;1.33;1.33;;;;;21.39;52.53;100165.91;5041022;28;45330;-78
2022/09/27 10:17:54;;;;;;;;;3.00;2.00;;;;;21.77;54.81;100173.03;5034014;28;45399;-77
2022/09/27 10:20:34;;;;;;;;;4.00;2.00;;;;;21.99;52.67;100174.22;5043745;28;45403;-80
2022/09/27 10:23:12;;;;;;;;;0.67;0.67;;;;;21.39;49.36;100165.91;5033191;28;45489;-79
2022/09/27 10:25:49;;;;;;;;;4.00;2.00;;;;;21.19;49.99;100170.81;5032598;28;45487;-79
2022/09/27 10:28:44;;;;;;;;;3.67;3.67;;;;;21.47;52.31;100173.03;5042279;28;45530;-80
2022/09/27 10:31:13;;;;;;;;;8.67;2.33;;;;;21.21;50.29;100163.16;5035117;28;45290;-79
2022/09/27 10:33:52;;;;;;;;;2.33;1.00;;;;;20.91;49.74;100165.81;5059217;28;46906;-79
2022/09/27 10:36:27;;;;;;;;;13.67;9.00;;;;;20.62;49.22;100152.75;5027753;28;45439;-78
2022/09/27 10:38:59;;;;;;;;;2.33;2.33;;;;;20.68;50.83;100155.44;5028660;28;45443;-78
2022/09/27 10:41:35;;;;;;;;;4.00;2.00;;;;;20.82;49.55;100159.75;5046204;28;45555;-79
2022/09/27 10:44:19;;;;;;;;;1.00;1.00;;;;;20.28;50.94;100167.94;5029508;28;45454;-79
2022/09/27 10:46:48;;;;;;;;;1.00;1.00;;;;;20.51;52.99;100162.66;5033797;28;45413;-77
2022/09/27 10:49:16;;;;;;;;;7.00;2.00;;;;;20.48;54.00;100169.47;5030988;28;45373;-79
2022/09/27 10:51:43;;;;;;;;;3.00;2.00;;;;;20.25;54.81;100160.09;5041151;28;45532;-76
2022/09/27 10:54:26;;;;;;;;;3.00;1.00;;;;;20.06;54.56;100165.56;5047097;28;47252;-78
2022/09/27 10:57:23;;;;;;;;;1.00;1.00;;;;;20.30;55.68;100163.03;5038323;28;45409;-78
2022/09/27 10:59:54;;;;;;;;;1.33;0.67;;;;;20.34;56.27;100169.81;5042399;28;45546;-76
2022/09/27 11:02:26;;;;;;;;;3.00;3.00;;;;;20.46;58.86;100173.50;5028962;28;45741;-77
2022/09/27 11:05:29;;;;;;;;;3.00;3.00;;;;;20.58;59.96;100164.28;5041432;28;47978;-77
2022/09/27 11:08:02;;;;;;;;;1.00;1.00;;;;;20.41;60.67;100162.31;5041405;28;45866;-78
2022/09/27 11:10:30;;;;;;;;;4.67;2.67;;;;;20.76;60.95;100149.63;5038584;28;45342;-80
2022/09/27 11:13:18;;;;;;;;;3.00;1.33;;;;;21.14;59.80;100148.56;5038556;28;45432;-79
2022/09/27 11:16:05;;;;;;;;;2.00;2.00;;;;;20.96;61.74;100171.53;5046029;28;46878;-79
2022/09/27 11:19:02;;;;;;;;;2.67;1.33;;;;;20.92;59.51;100165.59;5024223;28;45393;-78
2022/09/27 11:21:50;;;;;;;;;3.00;3.00;;;;;21.09;60.29;100165.00;5027733;28;45239;-80
2022/09/27 11:24:40;;;;;;;;;4.67;1.67;;;;;21.19;60.10;100170.81;5047178;28;45556;-79
2022/09/27 11:27:14;;;;;;;;;1.00;1.00;;;;;21.36;59.53;100158.06;5048764;28;47832;-78
2022/09/27 11:29:40;;;;;;;;;0.00;0.00;;;;;21.41;60.37;100158.22;5033162;28;45171;-80
2022/09/27 11:32:24;;;;;;;;;3.00;2.00;;;;;21.41;61.60;100160.97;5037684;28;45365;-79
2022/09/27 11:35:25;;;;;;;;;2.00;2.00;;;;;20.99;62.03;100149.78;5039278;28;45689;-79
2022/09/27 11:38:15;;;;;;;;;3.00;1.00;;;;;20.53;64.31;100171.53;5050093;28;45744;-78
2022/09/27 11:40:59;;;;;;;;;3.00;3.00;;;;;20.75;62.08;100156.22;5041253;28;45442;-76
2022/09/27 11:43:43;;;;;;;;;2.67;2.00;;;;;20.61;61.66;100157.44;5033185;28;45254;-77
2022/09/27 11:46:30;;;;;;;;;2.00;2.00;;;;;21.04;63.22;100157.38;5041961;28;45297;-78
2022/09/27 11:48:59;;;;;;;;;4.00;2.33;;;;;21.23;62.23;100159.09;5029272;28;46657;-78
2022/09/27 11:52:01;;;;;;;;;4.00;3.00;;;;;21.42;61.03;100151.59;5034766;28;45708;-78
2022/09/27 11:54:57;;;;;;;;;2.00;2.00;;;;;21.60;59.87;100145.19;5002262;28;45358;-78
2022/09/27 11:57:35;;;;;;;;;1.33;1.33;;;;;21.43;60.67;100125.66;5033033;28;45350;-77
2022/09/27 12:00:21;;;;;;;;;2.00;2.00;;;;;21.28;60.07;100122.47;5030440;28;45488;-78
2022/09/27 12:03:23;;;;;;;;;2.00;2.00;;;;;21.04;59.01;100128.94;5036768;28;45291;-77
2022/09/27 12:06:04;;;;;;;;;2.67;2.67;;;;;20.79;59.80;100116.06;5052803;28;45479;-78
2022/09/27 12:08:43;;;;;;;;;1.00;1.00;;;;;20.72;59.12;100131.00;5031647;28;45334;-79
2022/09/27 12:11:16;;;;;;;;;1.00;1.00;;;;;20.96;58.15;100125.41;5027268;28;46136;-78
2022/09/27 12:13:51;;;;;;;;;2.67;1.00;;;;;21.39;59.29;100127.22;5025760;28;45449;-78
2022/09/27 12:16:19;;;;;;;;;4.33;4.33;;;;;21.50;59.41;100123.66;5028073;28;45354;-78
2022/09/27 12:18:48;;;;;;;;;2.67;2.00;;;;;21.80;58.06;100129.16;5025411;28;45438;-78
2022/09/27 12:21:15;;;;;;;;;3.00;3.00;;;;;21.65;57.65;100132.34;5033131;28;46358;-79
2022/09/27 12:23:47;;;;;;;;;6.33;3.00;;;;;21.25;59.00;100121.03;5028325;28;45260;-77
2022/09/27 12:26:18;;;;;;;;;4.00;1.67;;;;;21.18;60.99;100120.28;5034064;28;45325;-79
2022/09/27 12:28:55;;;;;;;;;3.67;2.00;;;;;21.43;61.06;100117.38;5031404;28;45442;-78
2022/09/27 12:31:31;;;;;;;;;4.67;4.67;;;;;21.28;59.01;100119.72;5036949;28;45480;-80
2022/09/27 12:34:08;;;;;;;;;5.00;3.33;;;;;21.09;58.92;100116.13;5033475;28;45445;-80
2022/09/27 12:36:42;;;;;;;;;7.67;2.67;;;;;20.64;59.53;100134.91;5040601;28;45334;-80
2022/09/27 12:39:27;;;;;;;;;5.33;3.00;;;;;20.80;59.35;100137.06;5023954;28;45611;-80
2022/09/27 12:42:01;;;;;;;;;7.00;5.00;;;;;20.32;64.01;100141.56;5034318;28;46593;-80
2022/09/27 12:44:32;;;;;;;;;9.67;4.33;;;;;20.31;65.66;100135.19;5026348;28;45352;-79
2022/09/27 12:47:12;;;;;;;;;4.00;3.00;;;;;20.15;69.01;100142.16;5033731;28;45405;-78
2022/09/27 12:50:33;;;;;;;;;3.33;1.67;;;;;19.81;71.34;100145.38;5028751;28;45315;-78
2022/09/27 12:53:26;;;;;;;;;5.00;4.00;;;;;19.62;73.22;100133.44;5023375;28;45442;-77
2022/09/27 12:56:24;;;;;;;;;5.33;5.33;;;;;19.32;96.54;100130.41;5046321;28;45491;-76
2022/09/27 12:59:18;;;;;;;;;9.00;7.00;;;;;19.31;100.00;100122.34;5040368;28;45440;-76
2022/09/27 13:02:08;;;;;;;;;13.00;8.00;;;;;19.36;84.53;100126.13;5027192;28;45463;-77
2022/09/27 13:05:21;;;;;;;;;6.00;6.00;;;;;19.48;84.06;100128.22;5053581;28;47118;-77
2022/09/27 13:07:58;;;;;;;;;7.33;5.33;;;;;19.68;81.38;100127.03;5019304;28;45513;-77
2022/09/27 13:10:36;;;;;;;;;7.67;5.33;;;;;19.80;79.41;100121.63;5028837;28;45303;-76
2022/09/27 13:13:04;;;;;;;;;11.00;8.00;;;;;19.77;79.86;100105.56;5032183;28;45264;-76
2022/09/27 13:15:35;;;;;;;;;4.33;4.33;;;;;19.71;81.04;100099.03;5032360;28;46238;-77
2022/09/27 13:18:05;;;;;;;;;4.67;4.00;;;;;19.71;81.32;100109.22;5022691;28;45547;-76
2022/09/27 13:20:33;;;;;;;;;3.67;3.00;;;;;19.77;78.50;100102.81;5048775;28;45455;-76
2022/09/27 13:23:24;;;;;;;;;6.00;6.00;;;;;19.93;76.84;100107.75;5025297;28;45507;-76
2022/09/27 13:25:52;;;;;;;;;5.67;3.00;;;;;19.72;73.31;100097.97;5028748;28;45490;-76
2022/09/27 13:28:34;;;;;;;;;6.67;4.00;;;;;19.78;74.99;100102.59;5038080;28;45463;-75
2022/09/27 13:31:13;;;;;;;;;2.67;1.67;;;;;19.86;75.66;100082.16;5038008;28;45517;-76
2022/09/27 13:33:52;;;;;;;;;5.00;4.00;;;;;19.79;74.10;100092.41;5033381;28;45468;-77
2022/09/27 13:36:24;;;;;;;;;3.67;3.67;;;;;19.78;76.73;100086.03;5032723;28;45612;-77
2022/09/27 13:39:10;;;;;;;;;7.67;4.00;;;;;19.90;78.07;100075.13;5040462;28;45414;-76
2022/09/27 13:41:42;;;;;;;;;5.67;3.33;;;;;19.62;77.55;100085.75;5036420;28;45220;-76
2022/09/27 13:44:16;;;;;;;;;6.00;6.00;;;;;19.74;76.88;100089.44;5025618;28;45448;-78
2022/09/27 13:46:55;;;;;;;;;4.67;3.00;;;;;19.42;76.95;100097.72;5037388;28;45482;-77
2022/09/27 13:49:35;;;;;;;;;3.67;3.33;;;;;19.19;79.93;100085.56;5044190;28;45326;-79
2022/09/27 13:52:34;;;;;;;;;5.00;4.00;;;;;19.17;78.31;100088.53;5036651;28;45443;-76
2022/09/27 13:55:02;;;;;;;;;6.00;3.67;;;;;19.30;78.44;100088.44;5039376;28;45548;-78
2022/09/27 13:57:51;;;;;;;;;3.67;3.67;;;;;19.57;77.96;100083.66;5035106;28;46497;-79
2022/09/27 14:00:30;;;;;;;;;8.00;3.00;;;;;19.58;75.84;100076.25;5035230;28;45573;-78
2022/09/27 14:03:05;;;;;;;;;10.00;6.00;;;;;19.73;77.18;100076.72;5034593;28;45172;-78
2022/09/27 14:05:36;;;;;;;;;5.00;3.00;;;;;19.56;72.54;100045.31;5027481;28;45669;-78
2022/09/27 14:08:04;;;;;;;;;3.00;3.00;;;;;19.72;77.39;100048.34;5026183;28;45531;-79